Time;durP1;ratioP1;P1;durP2;ratioP2;P2;SDS_P1;SDS_P2;PMS_P1;PMS_P2;Temp;Humidity;BMP_temperature;BMP_pressure;BME280_temperature;BME280_humidity;BME280_pressure;Samples;Min_cycle;Max_cycle;Signal;HPM_P1;HPM_P2
2023/10/28 00:00:58;;;;;;;18.00;8.23;;;;;;;;;;4953787;28;20041;-69
2023/10/28 00:03:27;;;;;;;22.48;9.10;;;;;;;;;;4953504;29;20027;-69
2023/10/28 00:05:53;;;;;;;14.15;7.68;;;;;;;;;;4953412;29;20047;-69
2023/10/28 00:08:18;;;;;;;19.10;8.57;;;;;;;;;;4953002;29;20026;-69
2023/10/28 00:10:48;;;;;;;17.48;7.22;;;;;;;;;;4952388;28;20472;-69
2023/10/28 00:13:14;;;;;;;18.70;8.00;;;;;;;;;;4953754;28;20090;-69
2023/10/28 00:15:40;;;;;;;15.45;7.05;;;;;;;;;;4951929;28;20138;-69
2023/10/28 00:18:08;;;;;;;23.08;8.30;;;;;;;;;;4953047;29;20426;-69
2023/10/28 00:20:35;;;;;;;21.88;7.55;;;;;;;;;;4953051;28;20074;-69
2023/10/28 00:23:03;;;;;;;13.93;6.90;;;;;;;;;;4953227;29;20027;-68
2023/10/28 00:25:31;;;;;;;18.77;7.13;;;;;;;;;;4952958;28;20396;-69
2023/10/28 00:27:57;;;;;;;14.02;7.18;;;;;;;;;;4945609;28;20031;-69
2023/10/28 00:30:24;;;;;;;16.17;6.97;;;;;;;;;;4950685;29;20493;-69
2023/10/28 00:32:52;;;;;;;16.17;6.82;;;;;;;;;;4954648;28;20034;-69
2023/10/28 00:35:21;;;;;;;16.70;7.20;;;;;;;;;;4953066;29;20042;-69
2023/10/28 00:37:47;;;;;;;15.80;7.00;;;;;;;;;;4952684;29;20031;-69
2023/10/28 00:40:13;;;;;;;16.42;7.10;;;;;;;;;;4942911;29;20505;-68
2023/10/28 00:42:39;;;;;;;14.60;7.32;;;;;;;;;;4952753;29;20042;-68
2023/10/28 00:45:08;;;;;;;17.08;7.10;;;;;;;;;;4952671;29;20081;-70
2023/10/28 00:47:38;;;;;;;19.13;7.55;;;;;;;;;;4952420;28;20098;-69
2023/10/28 00:50:16;;;;;;;14.32;6.97;;;;;;;;;;4951441;29;20050;-68
2023/10/28 00:52:52;;;;;;;16.50;6.40;;;;;;;;;;4935154;29;20624;-69
2023/10/28 00:55:20;;;;;;;23.58;7.50;;;;;;;;;;4959233;28;20416;-69
2023/10/28 00:57:47;;;;;;;20.92;7.80;;;;;;;;;;4951527;28;20089;-70
2023/10/28 01:00:14;;;;;;;19.33;8.27;;;;;;;;;;4950310;28;20035;-69
2023/10/28 01:02:45;;;;;;;18.60;7.35;;;;;;;;;;4952220;29;20054;-70
2023/10/28 01:05:13;;;;;;;12.85;6.50;;;;;;;;;;4952261;29;20166;-69
2023/10/28 01:07:49;;;;;;;16.92;7.05;;;;;;;;;;4950863;28;20401;-70
2023/10/28 01:10:29;;;;;;;10.95;6.55;;;;;;;;;;4945313;28;20105;-69
2023/10/28 01:12:55;;;;;;;12.93;6.10;;;;;;;;;;4962267;28;20090;-69
2023/10/28 01:15:22;;;;;;;12.13;6.20;;;;;;;;;;4934879;29;20035;-69
2023/10/28 01:17:49;;;;;;;11.38;6.40;;;;;;;;;;4934995;29;20035;-69
2023/10/28 01:20:15;;;;;;;14.00;6.72;;;;;;;;;;4950512;29;20079;-68
2023/10/28 01:22:41;;;;;;;10.25;5.80;;;;;;;;;;4951808;28;20031;-70
2023/10/28 01:25:09;;;;;;;13.98;5.95;;;;;;;;;;4950496;28;20118;-69
2023/10/28 01:27:36;;;;;;;14.13;6.18;;;;;;;;;;4957404;28;20043;-69
2023/10/28 01:30:03;;;;;;;12.55;6.30;;;;;;;;;;4949671;29;20457;-68
2023/10/28 01:32:28;;;;;;;14.82;6.75;;;;;;;;;;4950333;29;20512;-69
2023/10/28 01:34:54;;;;;;;11.57;6.45;;;;;;;;;;4951937;29;20023;-68
2023/10/28 01:37:21;;;;;;;14.45;6.82;;;;;;;;;;4950603;29;20043;-68
2023/10/28 01:39:52;;;;;;;14.02;6.35;;;;;;;;;;4950749;28;20027;-68
2023/10/28 01:42:20;;;;;;;17.83;7.05;;;;;;;;;;4936565;29;20564;-68
2023/10/28 01:44:47;;;;;;;13.48;6.93;;;;;;;;;;4954820;28;20396;-66
2023/10/28 01:47:14;;;;;;;15.77;8.35;;;;;;;;;;4953542;28;20083;-69
2023/10/28 01:49:40;;;;;;;14.75;6.65;;;;;;;;;;4936801;29;20070;-69
2023/10/28 01:52:07;;;;;;;11.82;7.20;;;;;;;;;;4944459;29;20039;-68
2023/10/28 01:54:35;;;;;;;13.93;6.95;;;;;;;;;;4953470;28;20461;-69
2023/10/28 01:57:06;;;;;;;17.65;8.25;;;;;;;;;;4953455;28;20034;-68
2023/10/28 01:59:37;;;;;;;12.52;6.70;;;;;;;;;;4940495;29;20039;-69
2023/10/28 02:02:04;;;;;;;19.35;8.93;;;;;;;;;;4948741;29;20031;-70
2023/10/28 02:04:31;;;;;;;20.92;9.07;;;;;;;;;;4953269;28;20027;-68
2023/10/28 02:07:00;;;;;;;15.40;8.00;;;;;;;;;;4951679;29;20094;-68
2023/10/28 02:09:26;;;;;;;18.17;8.55;;;;;;;;;;4952224;29;20402;-69
2023/10/28 02:11:53;;;;;;;14.85;7.63;;;;;;;;;;4953694;29;20070;-69
2023/10/28 02:14:20;;;;;;;19.35;8.00;;;;;;;;;;4936370;29;20081;-69
2023/10/28 02:16:45;;;;;;;18.20;8.07;;;;;;;;;;4952407;29;20035;-70
2023/10/28 02:19:11;;;;;;;17.02;8.52;;;;;;;;;;4944364;29;20044;-69
2023/10/28 02:21:37;;;;;;;17.92;8.27;;;;;;;;;;4944410;29;20162;-69
2023/10/28 02:24:03;;;;;;;18.00;8.90;;;;;;;;;;4953638;29;20386;-68
2023/10/28 02:26:30;;;;;;;21.92;8.65;;;;;;;;;;4953750;29;20047;-69
2023/10/28 02:28:56;;;;;;;18.27;9.15;;;;;;;;;;4952391;29;20035;-68
2023/10/28 02:31:22;;;;;;;18.20;9.43;;;;;;;;;;4953617;28;20038;-68
2023/10/28 02:33:47;;;;;;;16.30;9.52;;;;;;;;;;4936228;29;20036;-68
2023/10/28 02:36:13;;;;;;;14.80;8.27;;;;;;;;;;4954778;28;20101;-68
2023/10/28 02:38:40;;;;;;;16.75;8.05;;;;;;;;;;4940103;29;20481;-69
2023/10/28 02:41:06;;;;;;;12.57;8.02;;;;;;;;;;4948975;29;20081;-68
2023/10/28 02:43:38;;;;;;;13.32;7.75;;;;;;;;;;4957068;29;20039;-70
2023/10/28 02:46:04;;;;;;;11.48;6.80;;;;;;;;;;4957347;29;20031;-69
2023/10/28 02:48:30;;;;;;;13.77;6.53;;;;;;;;;;4955745;29;20047;-68
2023/10/28 02:51:03;;;;;;;10.18;5.75;;;;;;;;;;4957230;28;20035;-68
2023/10/28 02:53:29;;;;;;;11.00;5.32;;;;;;;;;;4963181;28;20039;-70
2023/10/28 02:55:55;;;;;;;11.73;4.88;;;;;;;;;;4939898;29;20089;-68
2023/10/28 02:58:21;;;;;;;13.10;5.60;;;;;;;;;;4957097;29;20036;-68
2023/10/28 03:00:46;;;;;;;11.95;5.32;;;;;;;;;;4957072;29;20106;-69
2023/10/28 03:03:12;;;;;;;7.97;4.70;;;;;;;;;;4955434;28;20070;-69
2023/10/28 03:05:38;;;;;;;19.00;5.50;;;;;;;;;;4955750;29;20066;-69
2023/10/28 03:08:04;;;;;;;9.75;4.72;;;;;;;;;;4956837;29;20444;-69
2023/10/28 03:10:30;;;;;;;8.45;4.90;;;;;;;;;;4955735;29;20027;-69
2023/10/28 03:12:56;;;;;;;9.38;4.60;;;;;;;;;;4955771;29;20477;-69
2023/10/28 03:15:21;;;;;;;11.48;5.28;;;;;;;;;;4956865;29;20066;-69
2023/10/28 03:17:47;;;;;;;7.45;4.57;;;;;;;;;;4955663;29;20133;-68
2023/10/28 03:20:19;;;;;;;7.85;4.82;;;;;;;;;;4953792;29;20031;-68
2023/10/28 03:22:44;;;;;;;10.90;5.05;;;;;;;;;;4952952;29;20499;-68
2023/10/28 03:25:10;;;;;;;10.68;5.13;;;;;;;;;;4955931;28;20027;-68
2023/10/28 03:27:36;;;;;;;9.60;5.10;;;;;;;;;;4956879;28;20039;-69
2023/10/28 03:30:02;;;;;;;22.98;6.45;;;;;;;;;;4957271;29;20027;-69
2023/10/28 03:32:31;;;;;;;11.68;5.40;;;;;;;;;;4959870;28;20138;-69
2023/10/28 03:34:57;;;;;;;12.63;5.80;;;;;;;;;;4953528;29;20045;-69
2023/10/28 03:37:23;;;;;;;11.18;5.28;;;;;;;;;;4956131;28;20101;-68
2023/10/28 03:39:49;;;;;;;12.00;5.45;;;;;;;;;;4954471;28;20030;-68
2023/10/28 03:42:15;;;;;;;11.05;5.40;;;;;;;;;;4954277;28;20031;-68
2023/10/28 03:44:41;;;;;;;13.40;5.95;;;;;;;;;;4954025;28;20571;-68
2023/10/28 03:47:07;;;;;;;10.60;5.22;;;;;;;;;;4953722;29;20027;-69
2023/10/28 03:49:33;;;;;;;11.23;5.47;;;;;;;;;;4954012;29;20071;-69
2023/10/28 03:51:59;;;;;;;11.50;5.55;;;;;;;;;;4954988;28;20047;-68
2023/10/28 03:54:25;;;;;;;15.13;5.80;;;;;;;;;;4955627;28;20030;-69
2023/10/28 03:56:51;;;;;;;11.93;5.95;;;;;;;;;;4955929;29;20039;-69
2023/10/28 03:59:16;;;;;;;16.20;6.53;;;;;;;;;;4955836;29;20127;-69
2023/10/28 04:01:42;;;;;;;16.33;6.18;;;;;;;;;;4955823;29;20043;-68
2023/10/28 04:04:08;;;;;;;23.55;7.18;;;;;;;;;;4956177;28;20027;-69
2023/10/28 04:06:33;;;;;;;20.13;6.88;;;;;;;;;;4955804;29;20063;-69
2023/10/28 04:08:59;;;;;;;13.90;5.78;;;;;;;;;;4955673;29;20025;-69
2023/10/28 04:11:27;;;;;;;15.93;6.80;;;;;;;;;;4955657;29;20071;-68
2023/10/28 04:13:52;;;;;;;24.90;6.85;;;;;;;;;;4955696;29;20047;-67
2023/10/28 04:16:18;;;;;;;12.38;5.53;;;;;;;;;;4955611;28;20042;-69
2023/10/28 04:18:44;;;;;;;12.82;5.95;;;;;;;;;;4955589;29;20023;-68
2023/10/28 04:21:09;;;;;;;13.13;5.82;;;;;;;;;;4955640;29;20114;-69
2023/10/28 04:23:35;;;;;;;13.02;5.25;;;;;;;;;;4955456;29;20031;-68
2023/10/28 04:26:02;;;;;;;10.82;5.57;;;;;;;;;;4945833;28;20035;-69
2023/10/28 04:28:28;;;;;;;15.45;5.80;;;;;;;;;;4950368;28;20043;-68
2023/10/28 04:30:58;;;;;;;19.13;6.35;;;;;;;;;;4952428;28;20061;-68
2023/10/28 04:33:24;;;;;;;12.20;6.07;;;;;;;;;;4948743;29;20039;-69
2023/10/28 04:35:52;;;;;;;16.65;6.78;;;;;;;;;;4952289;28;20512;-69
2023/10/28 04:38:19;;;;;;;18.38;7.35;;;;;;;;;;4952196;29;20328;-68
2023/10/28 04:40:44;;;;;;;13.15;5.80;;;;;;;;;;4951850;29;20035;-68
2023/10/28 04:43:10;;;;;;;10.02;5.55;;;;;;;;;;4946705;28;20093;-68
2023/10/28 04:45:36;;;;;;;12.30;5.30;;;;;;;;;;4952856;28;20038;-69
2023/10/28 04:48:01;;;;;;;13.00;5.32;;;;;;;;;;4953439;28;20115;-69
2023/10/28 04:50:29;;;;;;;8.10;4.00;;;;;;;;;;4953672;28;20023;-69
2023/10/28 04:52:55;;;;;;;16.10;4.22;;;;;;;;;;4937121;29;20126;-69
2023/10/28 04:55:21;;;;;;;7.93;4.20;;;;;;;;;;4954192;28;20126;-69
2023/10/28 04:57:47;;;;;;;13.60;5.00;;;;;;;;;;4954294;28;20042;-69
2023/10/28 05:00:13;;;;;;;10.88;5.00;;;;;;;;;;4954826;29;20031;-69
2023/10/28 05:02:39;;;;;;;10.27;5.22;;;;;;;;;;4954362;29;20102;-69
2023/10/28 05:05:05;;;;;;;9.45;4.28;;;;;;;;;;4954791;29;20019;-69
2023/10/28 05:07:32;;;;;;;15.35;5.25;;;;;;;;;;4954508;29;20086;-69
2023/10/28 05:09:58;;;;;;;11.15;5.28;;;;;;;;;;4954301;28;20413;-69
2023/10/28 05:12:24;;;;;;;17.83;5.47;;;;;;;;;;4954287;28;20495;-69
2023/10/28 05:14:49;;;;;;;9.15;4.07;;;;;;;;;;4954623;28;20031;-69
2023/10/28 05:17:16;;;;;;;8.45;3.72;;;;;;;;;;4953145;28;20428;-69
2023/10/28 05:19:41;;;;;;;8.20;3.53;;;;;;;;;;4952971;28;20063;-69
2023/10/28 05:22:08;;;;;;;10.60;3.45;;;;;;;;;;4953180;29;20039;-69
2023/10/28 05:24:33;;;;;;;9.50;3.40;;;;;;;;;;4953816;29;20104;-69
2023/10/28 05:26:59;;;;;;;8.35;3.38;;;;;;;;;;4954107;29;20090;-69
2023/10/28 05:29:25;;;;;;;7.78;3.28;;;;;;;;;;4953695;28;20035;-69
2023/10/28 05:31:56;;;;;;;5.63;3.17;;;;;;;;;;4954015;29;20035;-70
2023/10/28 05:34:23;;;;;;;6.63;2.58;;;;;;;;;;4954273;29;20061;-70
2023/10/28 05:36:50;;;;;;;10.43;2.92;;;;;;;;;;4954090;29;20027;-71
2023/10/28 05:39:16;;;;;;;8.00;2.95;;;;;;;;;;4954017;29;20038;-70
2023/10/28 05:41:42;;;;;;;7.97;2.65;;;;;;;;;;4953706;29;20027;-69
2023/10/28 05:44:08;;;;;;;7.82;2.33;;;;;;;;;;4953959;29;20063;-70
2023/10/28 05:46:33;;;;;;;4.75;2.20;;;;;;;;;;4954257;29;20085;-69
2023/10/28 05:49:00;;;;;;;5.50;2.33;;;;;;;;;;4953956;29;20106;-70
2023/10/28 05:51:26;;;;;;;7.22;2.15;;;;;;;;;;4954029;29;20027;-69
2023/10/28 05:53:51;;;;;;;6.15;2.60;;;;;;;;;;4953819;29;20098;-71
2023/10/28 05:56:17;;;;;;;7.45;2.58;;;;;;;;;;4944078;29;20023;-70
2023/10/28 05:58:44;;;;;;;8.65;2.60;;;;;;;;;;4953103;29;20501;-70
2023/10/28 06:01:13;;;;;;;9.75;2.85;;;;;;;;;;4953879;29;20027;-69
2023/10/28 06:03:38;;;;;;;10.63;4.45;;;;;;;;;;4953516;29;20039;-69
2023/10/28 06:06:05;;;;;;;16.50;7.47;;;;;;;;;;4953089;28;20102;-72
2023/10/28 06:08:31;;;;;;;12.82;7.43;;;;;;;;;;4952597;28;20190;-69
2023/10/28 06:10:57;;;;;;;14.18;6.85;;;;;;;;;;4953569;29;20106;-69
2023/10/28 06:13:23;;;;;;;9.13;5.18;;;;;;;;;;4953430;29;20362;-69
2023/10/28 06:15:49;;;;;;;9.50;2.80;;;;;;;;;;4953287;29;20027;-70
2023/10/28 06:18:15;;;;;;;4.72;2.30;;;;;;;;;;4953254;29;20042;-69
2023/10/28 06:20:40;;;;;;;7.68;2.55;;;;;;;;;;4952363;29;20031;-70
2023/10/28 06:23:06;;;;;;;6.32;2.50;;;;;;;;;;4952963;28;20054;-69
2023/10/28 06:25:34;;;;;;;10.98;2.55;;;;;;;;;;4952828;28;20127;-69
2023/10/28 06:28:02;;;;;;;6.55;2.50;;;;;;;;;;4952739;29;20478;-70
2023/10/28 06:30:27;;;;;;;11.13;3.10;;;;;;;;;;4952897;29;20027;-70
2023/10/28 06:32:53;;;;;;;6.55;3.10;;;;;;;;;;4952668;29;20051;-69
2023/10/28 06:35:19;;;;;;;11.95;4.53;;;;;;;;;;4952748;29;20107;-70
2023/10/28 06:37:46;;;;;;;9.38;4.15;;;;;;;;;;4951893;29;20127;-70
2023/10/28 06:40:12;;;;;;;10.48;5.00;;;;;;;;;;4952959;29;20031;-70
2023/10/28 06:42:38;;;;;;;15.38;5.32;;;;;;;;;;4952064;28;20481;-69
2023/10/28 06:45:10;;;;;;;10.27;4.10;;;;;;;;;;4952657;29;20023;-70
2023/10/28 06:47:36;;;;;;;7.90;2.63;;;;;;;;;;4952812;29;20039;-70
2023/10/28 06:50:06;;;;;;;8.55;2.97;;;;;;;;;;4952994;29;20561;-69
2023/10/28 06:52:33;;;;;;;8.15;2.67;;;;;;;;;;4952337;29;20051;-69
2023/10/28 06:54:59;;;;;;;4.85;2.70;;;;;;;;;;4953090;28;20377;-69
2023/10/28 06:57:27;;;;;;;9.48;2.63;;;;;;;;;;4952869;29;20031;-70
2023/10/28 06:59:53;;;;;;;4.28;2.33;;;;;;;;;;4952761;28;20031;-71
2023/10/28 07:02:20;;;;;;;8.18;2.33;;;;;;;;;;4952529;29;20027;-70
2023/10/28 07:04:47;;;;;;;9.68;2.95;;;;;;;;;;4952410;29;20099;-69
2023/10/28 07:07:14;;;;;;;6.22;2.78;;;;;;;;;;4951013;29;20035;-70
2023/10/28 07:09:41;;;;;;;6.95;2.38;;;;;;;;;;4952396;29;20565;-70
2023/10/28 07:12:07;;;;;;;7.55;2.58;;;;;;;;;;4952935;29;20114;-69
2023/10/28 07:14:34;;;;;;;9.48;2.80;;;;;;;;;;4953319;29;20579;-70
2023/10/28 07:17:01;;;;;;;4.40;1.90;;;;;;;;;;4952699;29;20035;-70
2023/10/28 07:19:27;;;;;;;7.40;2.78;;;;;;;;;;4935424;29;20034;-70
2023/10/28 07:21:52;;;;;;;4.30;2.25;;;;;;;;;;4956172;29;20035;-70
2023/10/28 07:24:18;;;;;;;5.18;2.08;;;;;;;;;;4955646;29;20024;-71
2023/10/28 07:26:45;;;;;;;4.72;2.03;;;;;;;;;;4956204;29;20115;-70
2023/10/28 07:29:11;;;;;;;5.80;2.40;;;;;;;;;;4956393;29;20027;-69
2023/10/28 07:31:38;;;;;;;5.20;2.17;;;;;;;;;;4955948;29;20483;-69
2023/10/28 07:34:05;;;;;;;5.72;1.77;;;;;;;;;;4955289;29;20496;-69
2023/10/28 07:36:32;;;;;;;8.52;2.28;;;;;;;;;;4956202;29;20043;-69
2023/10/28 07:39:01;;;;;;;7.80;2.45;;;;;;;;;;4956289;29;20395;-69
2023/10/28 07:41:29;;;;;;;8.55;2.80;;;;;;;;;;4955543;28;20389;-69
2023/10/28 07:43:56;;;;;;;9.48;2.80;;;;;;;;;;4955136;29;20122;-70
2023/10/28 07:46:23;;;;;;;6.95;3.15;;;;;;;;;;4954965;29;20481;-69
2023/10/28 07:48:49;;;;;;;9.00;3.67;;;;;;;;;;4954870;28;20102;-69
2023/10/28 07:51:17;;;;;;;8.02;3.03;;;;;;;;;;4934998;29;20307;-69
2023/10/28 07:53:44;;;;;;;8.75;3.22;;;;;;;;;;4954138;28;20027;-68
2023/10/28 07:56:10;;;;;;;11.65;3.75;;;;;;;;;;4960688;28;20078;-69
2023/10/28 07:58:36;;;;;;;7.07;3.30;;;;;;;;;;4953893;29;20050;-70
2023/10/28 08:01:03;;;;;;;10.70;3.00;;;;;;;;;;4955029;29;20031;-69
2023/10/28 08:03:30;;;;;;;10.18;2.90;;;;;;;;;;4955466;28;20045;-69
2023/10/28 08:05:56;;;;;;;5.22;2.67;;;;;;;;;;4954717;28;20404;-69
2023/10/28 08:08:21;;;;;;;8.73;2.53;;;;;;;;;;4954890;29;20023;-70
2023/10/28 08:10:48;;;;;;;5.53;2.40;;;;;;;;;;4954376;29;20090;-68
2023/10/28 08:13:14;;;;;;;7.63;2.70;;;;;;;;;;4954046;29;20496;-69
2023/10/28 08:15:39;;;;;;;5.00;2.65;;;;;;;;;;4954735;28;20065;-69
2023/10/28 08:18:05;;;;;;;6.05;3.13;;;;;;;;;;4954524;28;20400;-71
2023/10/28 08:20:31;;;;;;;8.40;3.28;;;;;;;;;;4953868;28;20027;-67
2023/10/28 08:22:56;;;;;;;4.63;2.00;;;;;;;;;;4953238;29;20599;-68
2023/10/28 08:25:22;;;;;;;7.05;2.58;;;;;;;;;;4953432;28;20039;-68
2023/10/28 08:27:48;;;;;;;11.48;2.72;;;;;;;;;;4953877;29;20114;-70
2023/10/28 08:30:17;;;;;;;9.75;2.13;;;;;;;;;;4954523;29;20042;-70
2023/10/28 08:32:44;;;;;;;4.90;2.30;;;;;;;;;;4954093;28;20043;-69
2023/10/28 08:35:09;;;;;;;5.47;2.30;;;;;;;;;;4954461;29;20031;-69
2023/10/28 08:37:35;;;;;;;8.63;2.30;;;;;;;;;;4953913;29;20389;-70
2023/10/28 08:40:04;;;;;;;11.68;2.40;;;;;;;;;;4961094;28;20039;-69
2023/10/28 08:42:30;;;;;;;7.10;2.83;;;;;;;;;;4954242;28;20114;-68
2023/10/28 08:44:58;;;;;;;11.73;2.95;;;;;;;;;;4953437;29;20043;-69
2023/10/28 08:47:26;;;;;;;9.45;2.40;;;;;;;;;;4954379;29;20485;-68
2023/10/28 08:49:54;;;;;;;6.35;2.17;;;;;;;;;;4953598;29;20039;-70
2023/10/28 08:52:23;;;;;;;6.95;2.10;;;;;;;;;;4953817;29;20031;-68
2023/10/28 08:54:49;;;;;;;9.80;2.13;;;;;;;;;;4954484;29;20045;-68
2023/10/28 08:57:17;;;;;;;6.22;1.95;;;;;;;;;;4954276;29;20023;-68
2023/10/28 08:59:43;;;;;;;7.22;2.20;;;;;;;;;;4953309;29;20042;-68
2023/10/28 09:02:10;;;;;;;7.60;3.15;;;;;;;;;;4954040;29;20019;-67
2023/10/28 09:04:36;;;;;;;10.18;2.70;;;;;;;;;;4954129;29;20118;-68
2023/10/28 09:07:04;;;;;;;7.05;2.38;;;;;;;;;;4953848;29;20194;-68
2023/10/28 09:09:30;;;;;;;6.80;2.45;;;;;;;;;;4954051;29;20378;-69
2023/10/28 09:12:00;;;;;;;6.50;2.17;;;;;;;;;;4953925;29;20038;-69
2023/10/28 09:14:26;;;;;;;8.55;2.47;;;;;;;;;;4952896;29;20050;-69
2023/10/28 09:16:51;;;;;;;11.30;4.22;;;;;;;;;;4954248;28;20027;-69
2023/10/28 09:19:21;;;;;;;14.07;6.53;;;;;;;;;;4953426;29;20058;-70
2023/10/28 09:21:52;;;;;;;9.93;3.72;;;;;;;;;;4953539;29;20023;-69
2023/10/28 09:24:17;;;;;;;6.53;2.30;;;;;;;;;;4953768;29;20110;-68
2023/10/28 09:26:43;;;;;;;5.65;2.10;;;;;;;;;;4952882;28;20449;-68
2023/10/28 09:29:10;;;;;;;8.13;2.40;;;;;;;;;;4951977;28;20054;-68
2023/10/28 09:31:36;;;;;;;9.10;2.63;;;;;;;;;;4952512;29;20037;-69
2023/10/28 09:34:04;;;;;;;5.80;2.80;;;;;;;;;;4953583;29;20027;-69
2023/10/28 09:36:29;;;;;;;13.65;4.30;;;;;;;;;;4953004;29;20392;-68
2023/10/28 09:38:56;;;;;;;9.93;3.35;;;;;;;;;;4952689;28;20038;-69
2023/10/28 09:41:21;;;;;;;9.15;3.20;;;;;;;;;;4952595;28;20019;-68
2023/10/28 09:43:47;;;;;;;9.18;4.53;;;;;;;;;;4952989;28;20086;-67
2023/10/28 09:46:20;;;;;;;10.10;4.35;;;;;;;;;;4954000;29;20057;-69
2023/10/28 09:48:48;;;;;;;;;;;;;;;;;;4953182;29;20046;-69
2023/10/28 09:51:23;;;;;;;11.50;3.95;;;;;;;;;;4951895;28;19918;-69
2023/10/28 09:53:54;;;;;;;9.48;3.70;;;;;;;;;;4951936;28;20035;-69
2023/10/28 09:56:22;;;;;;;7.25;3.60;;;;;;;;;;4950218;28;20130;-70
2023/10/28 09:59:02;;;;;;;8.45;2.80;;;;;;;;;;4952714;29;20030;-68
2023/10/28 10:01:48;;;;;;;11.45;3.35;;;;;;;;;;4952765;29;20031;-68
2023/10/28 10:04:31;;;;;;;10.18;2.83;;;;;;;;;;4950277;29;20041;-68
2023/10/28 10:06:57;;;;;;;7.32;2.80;;;;;;;;;;4952221;29;20126;-69
2023/10/28 10:09:23;;;;;;;7.03;2.50;;;;;;;;;;4951563;28;20073;-69
2023/10/28 10:11:49;;;;;;;7.05;3.30;;;;;;;;;;4950170;28;20148;-67
2023/10/28 10:14:18;;;;;;;14.85;3.75;;;;;;;;;;4951579;29;20059;-69
2023/10/28 10:17:02;;;;;;;9.75;4.15;;;;;;;;;;4949378;28;20038;-69
2023/10/28 10:19:33;;;;;;;11.73;3.97;;;;;;;;;;4951335;28;20038;-68
2023/10/28 10:22:03;;;;;;;13.00;5.07;;;;;;;;;;4950865;28;20075;-69
2023/10/28 10:24:28;;;;;;;11.05;4.40;;;;;;;;;;4952417;29;20387;-69
2023/10/28 10:26:55;;;;;;;11.27;3.78;;;;;;;;;;4951677;29;20037;-68
2023/10/28 10:29:21;;;;;;;10.32;3.50;;;;;;;;;;4951472;29;20032;-68
2023/10/28 10:31:51;;;;;;;9.77;3.70;;;;;;;;;;4952683;29;20015;-69
2023/10/28 10:34:30;;;;;;;9.45;4.35;;;;;;;;;;4935297;29;20039;-69
2023/10/28 10:36:56;;;;;;;9.77;3.55;;;;;;;;;;4951378;28;20038;-68
2023/10/28 10:39:22;;;;;;;8.85;4.22;;;;;;;;;;4949855;29;20401;-68
2023/10/28 10:41:53;;;;;;;11.93;5.10;;;;;;;;;;4951845;28;20038;-70
2023/10/28 10:44:32;;;;;;;14.35;6.22;;;;;;;;;;4951922;29;20039;-68
2023/10/28 10:46:58;;;;;;;12.30;5.00;;;;;;;;;;4950924;29;20537;-68
2023/10/28 10:49:27;;;;;;;11.35;5.65;;;;;;;;;;4948017;28;20051;-68
2023/10/28 10:51:53;;;;;;;14.55;4.40;;;;;;;;;;4951305;29;20075;-68
2023/10/28 10:54:19;;;;;;;13.60;4.10;;;;;;;;;;4949834;28;20409;-69
2023/10/28 10:56:45;;;;;;;9.02;3.17;;;;;;;;;;4955898;29;20411;-69
2023/10/28 10:59:12;;;;;;;13.73;3.80;;;;;;;;;;4955373;29;20481;-69
2023/10/28 11:01:38;;;;;;;13.27;3.40;;;;;;;;;;4956319;29;20035;-68
2023/10/28 11:04:05;;;;;;;15.18;3.42;;;;;;;;;;4952903;29;20031;-68
2023/10/28 11:06:30;;;;;;;11.43;4.05;;;;;;;;;;4955806;29;20500;-69
2023/10/28 11:08:57;;;;;;;8.80;3.50;;;;;;;;;;4951482;29;20027;-68
2023/10/28 11:11:23;;;;;;;8.60;4.05;;;;;;;;;;4955945;29;20051;-69
2023/10/28 11:13:48;;;;;;;8.52;3.70;;;;;;;;;;4952623;29;20399;-69
2023/10/28 11:16:22;;;;;;;8.43;3.83;;;;;;;;;;4956101;29;20090;-68
2023/10/28 11:18:49;;;;;;;12.10;4.35;;;;;;;;;;4954340;29;20042;-68
2023/10/28 11:21:15;;;;;;;13.75;3.92;;;;;;;;;;4955137;28;20019;-69
2023/10/28 11:23:41;;;;;;;13.05;4.80;;;;;;;;;;4956043;29;20078;-68
2023/10/28 11:26:07;;;;;;;12.63;3.20;;;;;;;;;;4955693;29;20058;-69
2023/10/28 11:28:34;;;;;;;12.55;3.70;;;;;;;;;;4955204;29;20050;-69
2023/10/28 11:31:00;;;;;;;13.43;3.92;;;;;;;;;;4956118;28;20114;-67
2023/10/28 11:33:29;;;;;;;9.45;2.90;;;;;;;;;;4955413;28;20086;-68
2023/10/28 11:35:56;;;;;;;11.15;4.00;;;;;;;;;;4955613;29;20108;-69
2023/10/28 11:38:22;;;;;;;14.77;3.63;;;;;;;;;;4955761;29;20045;-69
2023/10/28 11:41:01;;;;;;;14.73;4.78;;;;;;;;;;4955364;29;20027;-69
2023/10/28 11:43:28;;;;;;;13.55;4.32;;;;;;;;;;4955523;29;20370;-69
2023/10/28 11:45:54;;;;;;;15.23;4.85;;;;;;;;;;4955511;29;20122;-69
2023/10/28 11:48:21;;;;;;;11.52;3.67;;;;;;;;;;4955293;29;20126;-69
2023/10/28 11:50:47;;;;;;;10.15;3.45;;;;;;;;;;4955697;29;20050;-68
2023/10/28 11:53:17;;;;;;;10.43;3.80;;;;;;;;;;4955740;29;20148;-68
2023/10/28 11:55:45;;;;;;;12.15;3.75;;;;;;;;;;4937268;29;20035;-68
2023/10/28 11:58:10;;;;;;;16.38;3.65;;;;;;;;;;4955186;29;20023;-68
2023/10/28 12:00:36;;;;;;;12.45;2.78;;;;;;;;;;4955443;29;20412;-67
2023/10/28 12:03:04;;;;;;;12.77;3.22;;;;;;;;;;4955235;29;20030;-68
2023/10/28 12:05:31;;;;;;;13.95;3.53;;;;;;;;;;4954898;28;20035;-68
2023/10/28 12:07:56;;;;;;;8.65;3.03;;;;;;;;;;4951950;28;20034;-68
2023/10/28 12:10:22;;;;;;;14.73;3.80;;;;;;;;;;4954163;28;20031;-69
2023/10/28 12:12:48;;;;;;;10.50;3.33;;;;;;;;;;4953002;28;20390;-68
2023/10/28 12:15:13;;;;;;;14.40;2.80;;;;;;;;;;4952961;28;20498;-68
2023/10/28 12:17:39;;;;;;;8.73;2.95;;;;;;;;;;4954662;28;20031;-68
2023/10/28 12:20:08;;;;;;;8.05;3.35;;;;;;;;;;4953510;28;20039;-71
2023/10/28 12:22:35;;;;;;;12.18;2.97;;;;;;;;;;4955553;28;20055;-69
2023/10/28 12:25:01;;;;;;;10.73;2.90;;;;;;;;;;4955199;29;20031;-69
2023/10/28 12:27:27;;;;;;;11.73;2.40;;;;;;;;;;4955097;29;20490;-69
2023/10/28 12:29:53;;;;;;;9.18;2.28;;;;;;;;;;4955117;29;20034;-69
2023/10/28 12:32:19;;;;;;;18.50;2.67;;;;;;;;;;4954692;29;20035;-68
2023/10/28 12:34:44;;;;;;;13.57;2.67;;;;;;;;;;4954765;28;20031;-69
2023/10/28 12:37:10;;;;;;;14.52;2.60;;;;;;;;;;4954489;29;20039;-68
2023/10/28 12:39:36;;;;;;;11.10;3.03;;;;;;;;;;4954489;28;20046;-69
2023/10/28 12:42:03;;;;;;;15.50;3.08;;;;;;;;;;4954500;29;20027;-68
2023/10/28 12:44:30;;;;;;;9.15;2.85;;;;;;;;;;4953683;28;20392;-68
2023/10/28 12:46:55;;;;;;;10.05;2.65;;;;;;;;;;4954359;29;20027;-68
2023/10/28 12:49:21;;;;;;;11.68;2.50;;;;;;;;;;4954529;29;20031;-69
2023/10/28 12:51:47;;;;;;;13.05;2.28;;;;;;;;;;4954397;29;20378;-69
2023/10/28 12:54:13;;;;;;;8.02;2.25;;;;;;;;;;4954935;29;20489;-68
2023/10/28 12:56:39;;;;;;;10.52;2.33;;;;;;;;;;4954659;29;20039;-68
2023/10/28 12:59:05;;;;;;;8.75;2.80;;;;;;;;;;4953400;29;20027;-68
2023/10/28 13:01:31;;;;;;;8.57;2.42;;;;;;;;;;4952121;28;20546;-69
2023/10/28 13:03:58;;;;;;;10.88;2.95;;;;;;;;;;4953847;29;20038;-69
2023/10/28 13:06:25;;;;;;;12.85;2.00;;;;;;;;;;4954480;28;20039;-69
2023/10/28 13:08:51;;;;;;;10.85;2.00;;;;;;;;;;4953217;29;20366;-70
2023/10/28 13:11:17;;;;;;;11.55;2.35;;;;;;;;;;4953526;28;20062;-69
2023/10/28 13:13:45;;;;;;;11.90;2.47;;;;;;;;;;4953593;29;20210;-69
2023/10/28 13:16:11;;;;;;;12.25;2.65;;;;;;;;;;4954380;29;20167;-69
2023/10/28 13:18:37;;;;;;;9.70;2.10;;;;;;;;;;4952859;28;20561;-69
2023/10/28 13:21:03;;;;;;;15.45;2.40;;;;;;;;;;4953570;28;20686;-69
2023/10/28 13:23:29;;;;;;;10.40;2.22;;;;;;;;;;4953501;29;20478;-68
2023/10/28 13:25:54;;;;;;;7.15;1.90;;;;;;;;;;4952889;29;20031;-69
2023/10/28 13:28:20;;;;;;;9.98;2.00;;;;;;;;;;4952984;28;20082;-69
2023/10/28 13:30:46;;;;;;;13.13;2.38;;;;;;;;;;4952482;29;20086;-69
2023/10/28 13:33:12;;;;;;;10.18;2.22;;;;;;;;;;4952860;29;20079;-69
2023/10/28 13:35:38;;;;;;;8.35;2.58;;;;;;;;;;4951808;29;20136;-68
2023/10/28 13:38:04;;;;;;;17.85;3.50;;;;;;;;;;4951514;29;20477;-70
2023/10/28 13:40:30;;;;;;;13.57;3.60;;;;;;;;;;4953351;29;20046;-69
2023/10/28 13:42:59;;;;;;;10.18;3.13;;;;;;;;;;4953319;29;20031;-68
2023/10/28 13:45:25;;;;;;;12.70;3.60;;;;;;;;;;4953780;29;20125;-68
2023/10/28 13:47:53;;;;;;;15.85;4.28;;;;;;;;;;4953350;29;20102;-68
2023/10/28 13:50:18;;;;;;;14.63;3.60;;;;;;;;;;4953305;29;20515;-69
2023/10/28 13:52:44;;;;;;;14.43;2.80;;;;;;;;;;4953433;28;20027;-68
2023/10/28 13:55:10;;;;;;;13.30;3.08;;;;;;;;;;4953025;29;20057;-68
2023/10/28 13:57:37;;;;;;;15.10;3.22;;;;;;;;;;4953105;29;20031;-68
2023/10/28 14:00:08;;;;;;;15.27;3.08;;;;;;;;;;4953121;29;20035;-68
2023/10/28 14:02:33;;;;;;;11.57;3.03;;;;;;;;;;4953424;29;20046;-69
2023/10/28 14:04:59;;;;;;;9.18;2.92;;;;;;;;;;4953357;29;20035;-68
2023/10/28 14:07:25;;;;;;;14.32;3.50;;;;;;;;;;4952783;29;20038;-68
2023/10/28 14:09:50;;;;;;;8.25;2.83;;;;;;;;;;4950860;29;20031;-68
2023/10/28 14:12:16;;;;;;;12.98;3.25;;;;;;;;;;4950648;28;20039;-68
2023/10/28 14:14:42;;;;;;;14.55;3.38;;;;;;;;;;4952609;29;20470;-68
2023/10/28 14:17:08;;;;;;;12.10;2.75;;;;;;;;;;4950350;29;20047;-68
2023/10/28 14:19:33;;;;;;;13.20;3.65;;;;;;;;;;4953028;29;20046;-68
2023/10/28 14:22:00;;;;;;;12.85;3.10;;;;;;;;;;4953177;29;20035;-68
2023/10/28 14:24:26;;;;;;;14.52;3.30;;;;;;;;;;4952882;29;20452;-68
2023/10/28 14:26:52;;;;;;;9.68;2.88;;;;;;;;;;4950298;28;20447;-68
2023/10/28 14:29:17;;;;;;;11.20;2.60;;;;;;;;;;4951199;29;20425;-69
2023/10/28 14:31:43;;;;;;;12.00;3.55;;;;;;;;;;4952611;29;20126;-68
2023/10/28 14:34:10;;;;;;;16.98;4.00;;;;;;;;;;4951399;29;20023;-68